Local area metar reports


Our local metar:
KGOO 262110Z AUTO 25007KT 10SM CLR 30/10 A3002 RMK A01

Decoded:

station                        KGOO
observed_date Tue, 26 May 2020 21:10:00 +0000
observed_age 8 min. ago
wind_speed 7
wind_direction 250
wind_direction_label WSW
visibility_report 10 miles
present_weather_report Dry
clouds_report Clear skies
temperature_f 86
dew_point_f 50
humidity 29
barometer 30.02
remarks A01

Auburn metar:
KAUN 262055Z AUTO 25006KT 10SM CLR 32/15 A2993 RMK A01

Decoded:

station                        KAUN
observed_date Tue, 26 May 2020 20:55:00 +0000
observed_age 23 min. ago
wind_speed 6
wind_direction 250
wind_direction_label WSW
visibility_report 10 miles
present_weather_report Dry
clouds_report Clear skies
temperature_f 90
dew_point_f 59
humidity 36
barometer 29.93
remarks A01

Lincoln metar:
KLHM 262115Z AUTO 00000KT 10SM CLR 35/12 A2983 RMK AO1

Decoded:

station                        KLHM
observed_date Tue, 26 May 2020 21:15:00 +0000
observed_age 3 min. ago
wind_speed 0
wind_direction 0
wind_direction_label N
visibility_report 10 miles
present_weather_report Dry
clouds_report Clear skies
temperature_f 95
dew_point_f 54
humidity 25
barometer 29.83
remarks AO1